createdAt,value
2018-11-23T00:00:39.741Z,109.67
2018-11-23T00:03:11.623Z,122.73
2018-11-23T00:05:43.480Z,117.57
2018-11-23T00:08:15.307Z,102.10
2018-11-23T00:10:47.368Z,114.70
2018-11-23T00:13:18.749Z,126.47
2018-11-23T00:15:49.866Z,127.27
2018-11-23T00:18:21.346Z,119.07
2018-11-23T00:20:53.337Z,126.53
2018-11-23T00:23:25.487Z,115.13
2018-11-23T00:25:57.540Z,115.00
2018-11-23T00:28:28.717Z,113.20
2018-11-23T00:31:00.649Z,112.33
2018-11-23T00:33:31.067Z,103.63
2018-11-23T00:35:59.686Z,118.13
2018-11-23T00:38:28.248Z,112.93
2018-11-23T00:40:56.888Z,105.53
2018-11-23T00:43:25.414Z,108.07
2018-11-23T00:45:53.944Z,106.13
2018-11-23T00:48:22.512Z,104.07
2018-11-23T00:50:51.056Z,107.67
2018-11-23T00:53:19.598Z,104.40
2018-11-23T00:55:48.152Z,119.67
2018-11-23T00:58:16.676Z,110.93
2018-11-23T01:00:45.260Z,114.53
2018-11-23T01:03:13.809Z,122.10
2018-11-23T01:05:42.349Z,121.60
2018-11-23T01:08:10.921Z,113.67
2018-11-23T01:10:39.486Z,115.27
2018-11-23T01:13:08.020Z,109.77
2018-11-23T01:15:36.584Z,109.90
2018-11-23T01:18:05.395Z,108.33
2018-11-23T01:20:33.932Z,96.30
2018-11-23T01:23:02.455Z,104.80
2018-11-23T01:25:31.011Z,112.03
2018-11-23T01:28:00.017Z,112.20
2018-11-23T01:30:35.337Z,111.67
2018-11-23T01:33:03.868Z,110.93
2018-11-23T01:35:32.412Z,111.97
2018-11-23T01:38:00.912Z,104.77
2018-11-23T01:40:30.649Z,109.70
2018-11-23T01:42:59.685Z,109.37
2018-11-23T01:45:28.273Z,103.93
2018-11-23T01:47:56.859Z,94.20
2018-11-23T01:50:26.915Z,99.23
2018-11-23T01:52:55.440Z,94.93
2018-11-23T01:55:24.603Z,95.90
2018-11-23T01:57:53.567Z,90.93
2018-11-23T02:00:24.181Z,89.17
2018-11-23T02:02:53.530Z,105.90
2018-11-23T02:05:22.100Z,100.30
2018-11-23T02:07:51.016Z,100.93
2018-11-23T02:10:20.200Z,91.77
2018-11-23T02:12:48.751Z,93.50
2018-11-23T02:15:20.449Z,96.83
2018-11-23T02:17:49.500Z,87.80
2018-11-23T02:20:18.960Z,83.77
2018-11-23T02:22:47.651Z,87.03
2018-11-23T02:25:16.221Z,88.13
2018-11-23T02:27:44.763Z,90.87
2018-11-23T02:30:15.582Z,94.03
2018-11-23T02:32:44.463Z,91.60
2018-11-23T02:35:13.642Z,92.37
2018-11-23T02:37:42.243Z,166.63
2018-11-23T02:40:12.372Z,152.73
2018-11-23T02:42:40.923Z,127.80
2018-11-23T02:45:12.884Z,142.13
2018-11-23T02:47:42.220Z,277.93
2018-11-23T02:50:11.016Z,155.27
2018-11-23T02:52:40.272Z,148.57
2018-11-23T02:55:09.959Z,121.33
2018-11-23T02:57:38.640Z,137.63
2018-11-23T03:00:13.493Z,153.70
2018-11-23T03:02:42.335Z,191.27
2018-11-23T03:05:12.839Z,171.00
2018-11-23T03:07:42.094Z,218.90
2018-11-23T03:10:12.025Z,160.37
2018-11-23T03:12:41.397Z,162.93
2018-11-23T03:15:11.857Z,149.70
2018-11-23T03:17:40.855Z,137.27
2018-11-23T03:20:11.608Z,150.33
2018-11-23T03:22:40.697Z,445.10
2018-11-23T03:25:10.522Z,269.80
2018-11-23T03:27:39.116Z,283.67
2018-11-23T03:30:13.235Z,264.57
2018-11-23T03:32:41.900Z,194.87
2018-11-23T03:35:10.540Z,154.10
2018-11-23T03:37:39.397Z,198.13
2018-11-23T03:40:08.281Z,230.10
2018-11-23T03:42:37.551Z,246.53
2018-11-23T03:45:07.709Z,316.97
2018-11-23T03:47:36.275Z,550.57
2018-11-23T03:50:05.277Z,417.03
2018-11-23T03:52:33.829Z,432.43
2018-11-23T03:55:02.366Z,460.93
2018-11-23T03:57:30.938Z,997.97
2018-11-23T03:59:59.460Z,392.20
2018-11-23T04:02:28.333Z,336.33
2018-11-23T04:04:57.823Z,287.53
2018-11-23T04:07:26.383Z,210.90
2018-11-23T04:09:54.886Z,276.57
2018-11-23T04:12:23.423Z,240.90
2018-11-23T04:14:51.940Z,220.77
2018-11-23T04:17:20.561Z,700.50
2018-11-23T04:19:49.196Z,615.27
2018-11-23T04:22:17.744Z,245.87
2018-11-23T04:24:46.308Z,292.17
2018-11-23T04:27:14.832Z,267.43
2018-11-23T04:29:43.406Z,407.83
2018-11-23T04:32:11.950Z,196.10
2018-11-23T04:34:40.486Z,179.60
2018-11-23T04:37:09.025Z,181.70
2018-11-23T04:39:37.530Z,155.40
2018-11-23T04:42:06.431Z,300.00
2018-11-23T04:44:34.929Z,216.20
2018-11-23T04:47:03.489Z,174.07
2018-11-23T04:49:32.019Z,144.60
2018-11-23T04:52:01.135Z,181.73
2018-11-23T04:54:30.011Z,150.13
2018-11-23T04:56:58.527Z,218.10
2018-11-23T04:59:27.057Z,197.90
2018-11-23T05:01:55.656Z,211.70
2018-11-23T05:04:24.155Z,251.80
2018-11-23T05:06:52.647Z,163.30
2018-11-23T05:09:21.217Z,189.63
2018-11-23T05:11:50.317Z,476.40
2018-11-23T05:14:18.312Z,217.17
2018-11-23T05:16:46.880Z,207.90
2018-11-23T05:19:15.427Z,180.60
2018-11-23T05:21:43.979Z,241.70
2018-11-23T05:24:12.548Z,187.20
2018-11-23T05:26:41.442Z,209.37
2018-11-23T05:29:10.009Z,311.37
2018-11-23T05:31:38.522Z,355.70
2018-11-23T05:34:07.175Z,207.40
2018-11-23T05:36:35.689Z,226.03
2018-11-23T05:39:05.657Z,531.33
2018-11-23T05:41:34.155Z,267.30
2018-11-23T05:44:02.807Z,299.63
2018-11-23T05:46:31.332Z,450.70
2018-11-23T05:48:59.965Z,213.13
2018-11-23T05:51:28.476Z,281.57
2018-11-23T05:53:57.044Z,390.03
2018-11-23T05:56:25.617Z,292.10
2018-11-23T05:58:54.410Z,224.97
2018-11-23T06:01:23.095Z,303.90
2018-11-23T06:03:51.719Z,213.40
2018-11-23T06:06:20.289Z,226.77
2018-11-23T06:08:48.847Z,156.57
2018-11-23T06:11:17.884Z,192.77
2018-11-23T06:13:46.447Z,217.63
2018-11-23T06:16:15.018Z,181.00
2018-11-23T06:18:43.558Z,316.67
2018-11-23T06:21:12.076Z,303.80
2018-11-23T06:23:40.620Z,206.83
2018-11-23T06:26:12.871Z,224.10
2018-11-23T06:28:41.423Z,253.80
2018-11-23T06:31:10.253Z,194.83
2018-11-23T06:33:41.136Z,229.43
2018-11-23T06:36:09.828Z,165.37
2018-11-23T06:38:38.492Z,203.70
2018-11-23T06:41:10.531Z,188.47
2018-11-23T06:43:36.700Z,176.73
2018-11-23T06:46:07.024Z,153.60
2018-11-23T06:48:35.571Z,239.23
2018-11-23T06:51:04.430Z,148.40
2018-11-23T06:53:32.957Z,174.23
2018-11-23T06:56:01.899Z,228.17
2018-11-23T06:58:30.496Z,186.83
2018-11-23T07:00:59.023Z,185.40
2018-11-23T07:03:27.978Z,247.10
2018-11-23T07:05:57.190Z,200.93
2018-11-23T07:08:26.160Z,333.13
2018-11-23T07:10:58.618Z,184.50
2018-11-23T07:13:27.917Z,234.07
2018-11-23T07:15:56.451Z,199.17
2018-11-23T07:18:25.327Z,205.20
2018-11-23T07:20:53.924Z,190.57
2018-11-23T07:23:22.422Z,186.47
2018-11-23T07:25:51.288Z,200.23
2018-11-23T07:28:19.791Z,150.07
2018-11-23T07:30:48.401Z,591.20
2018-11-23T07:33:17.039Z,221.40
2018-11-23T07:35:45.593Z,207.37
2018-11-23T07:38:14.116Z,279.80
2018-11-23T07:40:54.498Z,252.67
2018-11-23T07:43:23.052Z,204.83
2018-11-23T07:45:58.565Z,255.40
2018-11-23T07:48:27.113Z,187.83
2018-11-23T07:50:55.830Z,509.83
2018-11-23T07:53:24.230Z,241.97
2018-11-23T07:55:52.941Z,254.17
2018-11-23T07:58:21.453Z,244.80
2018-11-23T08:00:50.094Z,232.40
2018-11-23T08:03:18.604Z,221.07
2018-11-23T08:05:47.169Z,179.43
2018-11-23T08:08:15.792Z,195.60
2018-11-23T08:10:43.552Z,177.37
2018-11-23T08:13:12.039Z,274.43
2018-11-23T08:15:40.579Z,210.57
2018-11-23T08:18:09.140Z,165.70
2018-11-23T08:20:37.684Z,139.13
2018-11-23T08:23:06.274Z,184.43
2018-11-23T08:25:34.811Z,177.47
2018-11-23T08:28:03.385Z,126.57
2018-11-23T08:30:31.948Z,109.67
2018-11-23T08:33:00.450Z,105.97
2018-11-23T08:35:28.982Z,215.83
2018-11-23T08:37:57.487Z,112.67
2018-11-23T08:40:27.357Z,91.57
2018-11-23T08:42:56.484Z,117.23
2018-11-23T08:45:26.191Z,113.70
2018-11-23T08:47:54.699Z,118.23
2018-11-23T08:50:27.859Z,137.67
2018-11-23T08:52:56.410Z,132.97
2018-11-23T08:55:25.239Z,99.37
2018-11-23T08:57:53.777Z,148.03
2018-11-23T09:00:24.336Z,117.10
2018-11-23T09:02:54.484Z,116.30
2018-11-23T09:05:23.033Z,204.27
2018-11-23T09:07:52.682Z,132.67
2018-11-23T09:10:22.919Z,130.97
2018-11-23T09:12:54.418Z,98.33
2018-11-23T09:15:23.173Z,148.80
2018-11-23T09:17:51.706Z,152.47
2018-11-23T09:20:20.539Z,139.30
2018-11-23T09:22:49.073Z,149.23
2018-11-23T09:25:20.062Z,91.03
2018-11-23T09:27:48.590Z,125.73
2018-11-23T09:30:19.130Z,89.63
2018-11-23T09:32:48.567Z,184.73
2018-11-23T09:35:17.169Z,80.03
2018-11-23T09:37:46.094Z,84.63
2018-11-23T09:40:16.285Z,101.37
2018-11-23T09:42:44.804Z,211.20
2018-11-23T09:45:16.113Z,122.27
2018-11-23T09:47:45.626Z,133.47
2018-11-23T09:50:15.679Z,51.60
2018-11-23T09:52:44.970Z,45.63
2018-11-23T09:55:13.620Z,43.50
2018-11-23T09:57:42.144Z,75.73
2018-11-23T10:00:13.074Z,57.27
2018-11-23T10:02:42.067Z,60.43
2018-11-23T10:05:11.679Z,83.30
2018-11-23T10:07:40.493Z,80.80
2018-11-23T10:10:10.327Z,162.10
2018-11-23T10:12:38.901Z,60.23
2018-11-23T10:15:08.331Z,64.93
2018-11-23T10:17:36.839Z,87.50
2018-11-23T10:20:08.439Z,65.63
2018-11-23T10:22:37.236Z,55.10
2018-11-23T10:25:07.762Z,84.30
2018-11-23T10:27:36.312Z,65.00
2018-11-23T10:30:04.906Z,72.07
2018-11-23T10:32:33.436Z,70.73
2018-11-23T10:35:01.933Z,99.40
2018-11-23T10:37:30.494Z,60.23
2018-11-23T10:39:59.083Z,55.03
2018-11-23T10:42:27.615Z,55.07
2018-11-23T10:44:56.109Z,91.20
2018-11-23T10:47:24.649Z,68.90
2018-11-23T10:49:53.253Z,94.47
2018-11-23T10:52:21.831Z,203.07
2018-11-23T10:54:50.831Z,127.83
2018-11-23T10:57:19.473Z,85.93
2018-11-23T10:59:48.039Z,95.27
2018-11-23T11:02:21.908Z,82.00
2018-11-23T11:04:52.643Z,77.40
2018-11-23T11:07:21.184Z,73.87
2018-11-23T11:09:49.698Z,48.20
2018-11-23T11:12:18.288Z,42.10
2018-11-23T11:14:46.803Z,54.63
2018-11-23T11:17:15.356Z,38.20
2018-11-23T11:19:43.915Z,53.83
2018-11-23T11:22:12.448Z,38.37
2018-11-23T11:24:40.940Z,60.53
2018-11-23T11:27:09.479Z,49.13
2018-11-23T11:29:37.968Z,40.53
2018-11-23T11:32:06.509Z,52.10
2018-11-23T11:34:35.029Z,46.03
2018-11-23T11:37:03.577Z,64.27
2018-11-23T11:39:32.122Z,58.43
2018-11-23T11:42:00.654Z,46.73
2018-11-23T11:44:29.252Z,117.77
2018-11-23T11:46:57.802Z,75.97
2018-11-23T11:49:26.312Z,69.70
2018-11-23T11:51:54.859Z,103.13
2018-11-23T11:54:23.360Z,67.67
2018-11-23T11:56:51.883Z,54.10
2018-11-23T11:59:20.811Z,62.73
2018-11-23T12:01:49.348Z,69.43
2018-11-23T12:04:17.839Z,50.37
2018-11-23T12:06:46.560Z,54.00
2018-11-23T12:09:15.317Z,67.50
2018-11-23T12:11:43.870Z,57.13
2018-11-23T12:14:12.384Z,78.07
2018-11-23T12:16:40.945Z,50.67
2018-11-23T12:19:09.538Z,97.77
2018-11-23T12:21:38.058Z,52.10
2018-11-23T12:24:06.742Z,57.40
2018-11-23T12:26:35.276Z,63.90
2018-11-23T12:29:03.886Z,52.70
2018-11-23T12:31:32.457Z,124.20
2018-11-23T12:34:01.423Z,89.03
2018-11-23T12:36:29.969Z,75.37
2018-11-23T12:38:58.498Z,64.37
2018-11-23T12:42:13.563Z,65.03
2018-11-23T12:44:42.307Z,79.20
2018-11-23T12:47:10.927Z,63.57
2018-11-23T12:49:39.619Z,72.20
2018-11-23T12:52:08.712Z,67.50
2018-11-23T12:54:37.191Z,85.73
2018-11-23T12:57:05.828Z,64.57
2018-11-23T12:59:34.378Z,81.13
2018-11-23T13:02:03.067Z,59.77
2018-11-23T13:04:31.973Z,56.27
2018-11-23T13:07:00.580Z,68.53
2018-11-23T13:09:29.133Z,85.23
2018-11-23T13:11:57.697Z,68.80
2018-11-23T13:14:26.250Z,54.63
2018-11-23T13:16:55.195Z,59.50
2018-11-23T13:19:24.034Z,62.27
2018-11-23T13:21:52.831Z,51.57
2018-11-23T13:24:21.449Z,53.90
2018-11-23T13:26:50.018Z,68.73
2018-11-23T13:29:18.540Z,86.83
2018-11-23T13:31:47.860Z,67.85
2018-11-23T13:34:16.417Z,54.40
2018-11-23T13:36:44.970Z,65.50
2018-11-23T13:39:13.597Z,74.00
2018-11-23T13:41:42.142Z,89.23
2018-11-23T13:44:10.748Z,135.97
2018-11-23T13:46:39.265Z,55.87
2018-11-23T13:49:07.792Z,89.47
2018-11-23T13:51:36.313Z,63.30
2018-11-23T13:54:04.896Z,86.27
2018-11-23T13:56:33.492Z,83.10
2018-11-23T13:59:02.013Z,102.20
2018-11-23T14:01:30.686Z,94.63
2018-11-23T14:03:59.287Z,107.57
2018-11-23T14:06:27.967Z,90.23
2018-11-23T14:08:56.545Z,113.53
2018-11-23T14:11:25.103Z,117.80
2018-11-23T14:13:53.942Z,107.97
2018-11-23T14:16:22.518Z,117.53
2018-11-23T14:18:51.069Z,112.53
2018-11-23T14:21:19.669Z,82.57
2018-11-23T14:23:48.187Z,79.53
2018-11-23T14:26:16.786Z,63.90
2018-11-23T14:28:45.367Z,133.93
2018-11-23T14:31:13.908Z,134.37
2018-11-23T14:33:42.424Z,90.67
2018-11-23T14:36:10.984Z,108.53
2018-11-23T14:38:39.498Z,96.00
2018-11-23T14:41:08.766Z,83.83
2018-11-23T14:43:38.349Z,81.77
2018-11-23T14:46:07.339Z,97.80
2018-11-23T14:48:35.907Z,111.60
2018-11-23T14:51:04.871Z,92.33
2018-11-23T14:53:34.077Z,97.23
2018-11-23T14:56:03.313Z,108.10
2018-11-23T14:58:31.847Z,98.67
2018-11-23T15:01:00.394Z,124.43
2018-11-23T15:03:28.936Z,95.73
2018-11-23T15:05:57.447Z,101.40
2018-11-23T15:08:25.959Z,99.17
2018-11-23T15:10:54.707Z,77.20
2018-11-23T15:13:23.255Z,78.93
2018-11-23T15:15:52.593Z,102.90
2018-11-23T15:18:21.172Z,88.33
2018-11-23T15:20:49.762Z,95.67
2018-11-23T15:23:19.822Z,72.93
2018-11-23T15:25:48.353Z,76.03
2018-11-23T15:28:17.153Z,80.07
2018-11-23T15:30:46.645Z,72.93
2018-11-23T15:33:16.776Z,71.87
2018-11-23T15:35:45.889Z,67.30
2018-11-23T15:38:19.158Z,63.73
2018-11-23T15:40:50.099Z,57.03
2018-11-23T15:43:19.767Z,62.50
2018-11-23T15:45:48.269Z,69.17
2018-11-23T15:48:16.851Z,65.17
2018-11-23T15:50:45.998Z,74.17
2018-11-23T15:53:15.829Z,68.07
2018-11-23T15:55:44.434Z,75.20
2018-11-23T15:58:14.438Z,74.07
2018-11-23T16:00:44.441Z,77.83
2018-11-23T16:03:14.425Z,80.67
2018-11-23T16:05:43.139Z,79.83
2018-11-23T16:08:14.150Z,84.90
2018-11-23T16:10:43.332Z,95.43
2018-11-23T16:13:16.925Z,82.80
2018-11-23T16:15:45.463Z,104.70
2018-11-23T16:18:14.395Z,78.43
2018-11-23T16:20:44.417Z,87.93
2018-11-23T16:23:15.441Z,94.07
2018-11-23T16:25:44.667Z,79.63
2018-11-23T16:28:13.652Z,75.33
2018-11-23T16:30:43.473Z,73.93
2018-11-23T16:33:13.508Z,73.90
2018-11-23T16:35:42.678Z,67.43
2018-11-23T16:38:12.908Z,62.07
2018-11-23T16:40:42.945Z,62.30
2018-11-23T16:43:12.464Z,68.10
2018-11-23T16:45:41.663Z,61.40
2018-11-23T16:48:11.326Z,62.13
2018-11-23T16:50:40.021Z,62.40
2018-11-23T16:53:09.028Z,64.03
2018-11-23T16:55:37.790Z,64.17
2018-11-23T16:58:07.752Z,62.33
2018-11-23T17:00:37.770Z,59.43
2018-11-23T17:03:09.446Z,68.03
2018-11-23T17:05:39.489Z,60.37
2018-11-23T17:08:09.079Z,67.27
2018-11-23T17:10:37.700Z,62.67
2018-11-23T17:13:06.344Z,63.60
2018-11-23T17:15:35.027Z,59.77
2018-11-23T17:18:03.538Z,59.93
2018-11-23T17:20:33.364Z,58.63
2018-11-23T17:23:02.958Z,60.57
2018-11-23T17:25:31.886Z,64.57
2018-11-23T17:28:01.932Z,64.17
2018-11-23T17:30:31.760Z,61.80
2018-11-23T17:33:00.495Z,62.07
2018-11-23T17:35:29.337Z,61.90
2018-11-23T17:37:57.857Z,57.77
2018-11-23T17:40:28.129Z,58.17
2018-11-23T17:42:56.910Z,67.60
2018-11-23T17:45:27.855Z,76.27
2018-11-23T17:47:56.521Z,119.83
2018-11-23T17:50:26.823Z,88.13
2018-11-23T17:52:55.589Z,90.90
2018-11-23T17:55:24.188Z,93.40
2018-11-23T17:57:53.664Z,177.93
2018-11-23T18:00:25.736Z,120.87
2018-11-23T18:02:54.935Z,175.20
2018-11-23T18:05:25.378Z,140.53
2018-11-23T18:07:54.628Z,174.87
2018-11-23T18:10:24.637Z,114.17
2018-11-23T18:12:53.925Z,113.23
2018-11-23T18:15:26.781Z,151.00
2018-11-23T18:17:56.736Z,124.20
2018-11-23T18:20:26.624Z,122.87
2018-11-23T18:22:56.228Z,101.63
2018-11-23T18:25:27.270Z,159.77
2018-11-23T18:28:02.204Z,132.93
2018-11-23T18:30:32.100Z,119.47
2018-11-23T18:33:02.846Z,145.47
2018-11-23T18:35:31.437Z,126.10
2018-11-23T18:37:59.967Z,137.57
2018-11-23T18:40:28.522Z,138.03
2018-11-23T18:42:57.055Z,183.73
2018-11-23T18:45:25.752Z,147.03
2018-11-23T18:47:54.312Z,136.47
2018-11-23T18:50:22.878Z,124.13
2018-11-23T18:52:51.404Z,139.80
2018-11-23T18:55:19.926Z,152.33
2018-11-23T18:57:48.565Z,115.63
2018-11-23T19:00:17.433Z,119.00
2018-11-23T19:02:47.169Z,103.00
2018-11-23T19:05:18.330Z,107.47
2018-11-23T19:07:46.950Z,120.10
2018-11-23T19:10:15.578Z,116.73
2018-11-23T19:12:44.332Z,125.27
2018-11-23T19:15:25.158Z,120.87
2018-11-23T19:17:47.656Z,117.30
2018-11-23T19:20:18.323Z,123.60
2018-11-23T19:22:48.258Z,155.63
2018-11-23T19:25:17.085Z,119.37
2018-11-23T19:27:45.725Z,121.70
2018-11-23T19:30:15.856Z,130.33
2018-11-23T19:32:44.424Z,158.70
2018-11-23T19:35:13.160Z,143.37
2018-11-23T19:37:41.970Z,138.97
2018-11-23T19:40:13.902Z,161.53
2018-11-23T19:42:43.260Z,198.10
2018-11-23T19:45:15.848Z,207.43
2018-11-23T19:47:44.652Z,145.63
2018-11-23T19:50:17.108Z,150.67
2018-11-23T19:52:46.492Z,162.70
2018-11-23T19:55:16.192Z,151.33
2018-11-23T19:57:44.760Z,149.93
2018-11-23T20:00:17.928Z,146.10
2018-11-23T20:02:46.684Z,141.67
2018-11-23T20:05:15.364Z,134.37
2018-11-23T20:07:44.569Z,150.33
2018-11-23T20:10:15.526Z,121.90
2018-11-23T20:12:45.036Z,131.40
2018-11-23T20:15:15.893Z,136.53
2018-11-23T20:17:45.442Z,134.27
2018-11-23T20:20:15.335Z,160.87
2018-11-23T20:22:44.326Z,228.13
2018-11-23T20:25:14.232Z,227.60
2018-11-23T20:27:42.987Z,236.70
2018-11-23T20:30:16.609Z,270.60
2018-11-23T20:32:45.458Z,229.53
2018-11-23T20:35:16.141Z,218.77
2018-11-23T20:37:44.899Z,211.13
2018-11-23T20:40:17.362Z,213.50
2018-11-23T20:42:46.731Z,172.67
2018-11-23T20:45:15.419Z,149.60
2018-11-23T20:47:44.167Z,177.73
2018-11-23T20:50:14.157Z,142.73
2018-11-23T20:52:42.827Z,129.50
2018-11-23T20:55:13.626Z,136.67
2018-11-23T20:57:42.287Z,128.47
2018-11-23T21:00:14.885Z,140.93
2018-11-23T21:02:44.400Z,150.73
2018-11-23T21:05:14.274Z,148.30
2018-11-23T21:07:42.805Z,149.43
2018-11-23T21:10:20.503Z,130.23
2018-11-23T21:12:48.117Z,139.23
2018-11-23T21:15:18.316Z,136.40
2018-11-23T21:17:47.743Z,116.30
2018-11-23T21:20:16.308Z,140.53
2018-11-23T21:22:45.616Z,140.60
2018-11-23T21:25:14.259Z,137.33
2018-11-23T21:27:43.874Z,142.50
2018-11-23T21:30:14.776Z,140.03
2018-11-23T21:32:43.544Z,141.27
2018-11-23T21:35:12.913Z,165.87
2018-11-23T21:37:41.482Z,134.80
2018-11-23T21:40:12.151Z,131.27
2018-11-23T21:42:40.719Z,157.40
2018-11-23T21:45:11.781Z,145.87
2018-11-23T21:47:40.335Z,143.40
2018-11-23T21:50:11.170Z,162.37
2018-11-23T21:52:40.016Z,142.90
2018-11-23T21:55:11.254Z,132.10
2018-11-23T21:57:39.764Z,144.43
2018-11-23T22:00:13.736Z,134.90
2018-11-23T22:02:42.592Z,122.07
2018-11-23T22:05:11.677Z,136.27
2018-11-23T22:07:40.365Z,142.67
2018-11-23T22:10:11.036Z,130.63
2018-11-23T22:12:39.621Z,130.53
2018-11-23T22:15:10.233Z,126.03
2018-11-23T22:17:38.834Z,131.23
2018-11-23T22:20:09.852Z,128.83
2018-11-23T22:22:38.389Z,128.30
2018-11-23T22:25:09.701Z,139.10
2018-11-23T22:27:38.238Z,134.80
2018-11-23T22:30:12.324Z,151.87
2018-11-23T22:32:40.859Z,129.77
2018-11-23T22:35:10.440Z,153.07
2018-11-23T22:37:38.994Z,147.30
2018-11-23T22:40:11.052Z,154.03
2018-11-23T22:42:40.054Z,138.67
2018-11-23T22:45:10.392Z,123.03
2018-11-23T22:47:39.025Z,133.70
2018-11-23T22:50:09.742Z,133.60
2018-11-23T22:52:38.333Z,122.90
2018-11-23T22:55:08.743Z,138.97
2018-11-23T22:57:37.427Z,136.47
2018-11-23T23:00:19.519Z,130.63
2018-11-23T23:02:48.815Z,136.10
2018-11-23T23:05:17.705Z,148.57
2018-11-23T23:07:46.339Z,147.53
2018-11-23T23:10:15.167Z,156.80
2018-11-23T23:12:43.719Z,134.70
2018-11-23T23:15:20.208Z,137.87
2018-11-23T23:17:49.041Z,155.53
2018-11-23T23:20:18.789Z,146.57
2018-11-23T23:22:47.391Z,134.13
2018-11-23T23:25:16.011Z,150.23
2018-11-23T23:27:44.626Z,140.27
2018-11-23T23:30:16.957Z,140.37
2018-11-23T23:32:46.385Z,135.63
2018-11-23T23:35:16.040Z,113.93
2018-11-23T23:37:44.581Z,125.43
2018-11-23T23:40:17.214Z,119.30
2018-11-23T23:42:46.594Z,119.90
2018-11-23T23:45:16.435Z,112.80
2018-11-23T23:47:45.146Z,98.23
2018-11-23T23:50:19.759Z,107.13
2018-11-23T23:52:48.802Z,111.47
2018-11-23T23:55:17.505Z,114.20
2018-11-23T23:57:46.903Z,99.50
